Tümü
Mater Hospital Airport (Brisbane, QLD) YMAT Hava Durumu
There is no TAF data available at YMAT. Showing TAF data for YBAF (6 mi G).
YBAF Terminal Alanı Tahmini (YMAT için veri yok)
| Date | Time (AEST) | Flight Rules | Wind Dir. | Speed | Type | Height AGL (ft) | Visibility | Remarks | ||||||
|---|---|---|---|---|---|---|---|---|---|---|---|---|---|---|
| 03-Eyl | 09:00 | VFR | 20° | 6 kt | Clouds and Visibility are OK | >= 6 miles | ||||||||
| 03-Eyl | 08:00 | VFR | 20° | 6 kt | Clouds and Visibility are OK | >= 6 miles | ||||||||
| 03-Eyl | 07:00 | VFR | 20° | 6 kt | Clouds and Visibility are OK | >= 6 miles | ||||||||
| 03-Eyl | 06:00 | VFR | 20° | 6 kt | Clouds and Visibility are OK | >= 6 miles | ||||||||
| 03-Eyl | 05:00 | VFR | 20° | 6 kt | Clouds and Visibility are OK | >= 6 miles | ||||||||
| 03-Eyl | 04:00 | VFR | 20° | 6 kt | Clouds and Visibility are OK | >= 6 miles | ||||||||
| 03-Eyl | 03:00 | VFR | 20° | 6 kt | Clouds and Visibility are OK | >= 6 miles | ||||||||
| 03-Eyl | 02:00 | VFR | 20° | 6 kt | Clouds and Visibility are OK | >= 6 miles | ||||||||
There is no METAR data available at YMAT. Showing METAR data for YBAF (6 mi G).
Yakın zamandaki YBAF METAR geçmişi (YMAT verisi yok)
| Date | Time (AEST) | Flight Rules | Wind Dir. | Speed | Type | Height AGL (ft) | Visibility | Temp (°C) | Temp (°F) | Dew Point (°C) | Dew Point (°F) | Rel. Humid. | Pressure | Density Altitude | Remarks |
|---|---|---|---|---|---|---|---|---|---|---|---|---|---|---|---|
| 03-Eyl | 02:00 | VFR | 190° | 4 kt | 10000 meters | 13° | 55° | 10° | 50° | 82% | 1020 mb | -378 ft | |||
| 03-Eyl | 01:00 | VFR | 180° | 5 kt | 10000 meters | 15° | 59° | 12° | 53° | 82% | 1020 mb | -138 ft | |||
| 03-Eyl | 00:00 | VFR | 10° | 4 kt | 10000 meters | 15° | 59° | 12° | 53° | 82% | 1020 mb | -138 ft | |||
| 02-Eyl | 23:00 | VFR | 360° | 1 kt | 10000 meters | 15° | 59° | 12° | 53° | 82% | 1020 mb | -138 ft | |||
| 02-Eyl | 22:00 | VFR | 10° | 7 kt | 10000 meters | 17° | 62° | 12° | 53° | 72% | 1020 mb | 102 ft | |||
| 02-Eyl | 21:00 | VFR | 30° | 8 kt | 10000 meters | 18° | 64° | 12° | 53° | 68% | 1020 mb | 222 ft | |||
| 02-Eyl | 20:00 | VFR | 20° | 9 kt | 10000 meters | 18° | 64° | 13° | 55° | 73% | 1020 mb | 222 ft | |||
| 02-Eyl | 19:00 | VFR | 30° | 8 kt | 10000 meters | 19° | 66° | 15° | 59° | 78% | 1019 mb | 372 ft | |||
| 02-Eyl | 18:00 | VFR | 30° | 10 kt | 10000 meters | 20° | 68° | 15° | 59° | 73% | 1019 mb | 492 ft | |||
| 02-Eyl | 17:00 | VFR | 20° | 13 kt | 10000 meters | 22° | 71° | 13° | 55° | 57% | 1018 mb | 761 ft | |||
| 02-Eyl | 16:00 | VFR | 20° | 14 kt | 10000 meters | 24° | 75° | 13° | 55° | 50% | 1018 mb | 1.001 ft | |||
| 02-Eyl | 15:00 | VFR | 30° | 12 kt | 10000 meters | 26° | 78° | 13° | 55° | 45% | 1018 mb | 1.241 ft | |||
| 02-Eyl | 14:00 | VFR | 310° | 5 kt | 10000 meters | 27° | 80° | 12° | 53° | 39% | 1019 mb | 1.332 ft | |||
| 02-Eyl | 13:00 | VFR | 260° | 4 kt | 10000 meters | 26° | 78° | 10° | 50° | 37% | 1020 mb | 1.182 ft | |||
| 02-Eyl | 12:00 | VFR | 10° | 6 kt | 10000 meters | 24° | 75° | 12° | 53° | 47% | 1021 mb | 913 ft | |||
| 02-Eyl | 11:00 | VFR | 350° | 4 kt | 10000 meters | 23° | 73° | 13° | 55° | 53% | 1023 mb | 734 ft | |||
| 02-Eyl | 10:00 | VFR | 270° | 7 kt | 10000 meters | 22° | 71° | 13° | 55° | 57% | 1024 mb | 584 ft | |||
| 02-Eyl | 09:00 | VFR | 270° | 5 kt | 10000 meters | 19° | 66° | 13° | 55° | 68% | 1025 mb | 195 ft | |||
| 02-Eyl | 08:00 | VFR | 220° | 3 kt | 10000 meters | 15° | 59° | 12° | 53° | 82% | 1025 mb | -285 ft | |||
| 02-Eyl | 07:00 | VFR | 200° | 4 kt | 10000 meters | 12° | 53° | 11° | 51° | 94% | 1024 mb | -616 ft | |||
| 02-Eyl | 06:00 | VFR | 200° | 3 kt | 10000 meters | 10° | 50° | 9° | 48° | 93% | 1024 mb | -856 ft | |||
| 02-Eyl | 05:00 | VFR | Calm | 10000 meters | 11° | 51° | 10° | 50° | 94% | 1023 mb | -706 ft | ||||
| 02-Eyl | 04:00 | VFR | Calm | 10000 meters | 11° | 51° | 10° | 50° | 94% | 1023 mb | -706 ft | ||||
| 02-Eyl | 03:00 | VFR | Calm | 10000 meters | 11° | 51° | 9° | 48° | 87% | 1024 mb | -736 ft |
Giriş
| Tarayıcınız desteklenmiyor. tarayıcınızı yükseltin |
